createdAt,value
2018-06-03T00:01:20.593Z,6.60
2018-06-03T00:03:48.159Z,7.33
2018-06-03T00:06:16.385Z,8.00
2018-06-03T00:08:43.843Z,7.47
2018-06-03T00:11:11.312Z,7.50
2018-06-03T00:13:38.775Z,7.00
2018-06-03T00:16:06.268Z,7.17
2018-06-03T00:18:33.844Z,7.67
2018-06-03T00:21:28.172Z,8.90
2018-06-03T00:23:55.644Z,7.30
2018-06-03T00:26:23.098Z,10.97
2018-06-03T00:28:50.571Z,8.03
2018-06-03T00:31:18.044Z,7.37
2018-06-03T00:33:45.527Z,7.87
2018-06-03T00:36:24.865Z,10.67
2018-06-03T00:38:52.338Z,8.70
2018-06-03T00:41:19.888Z,11.10
2018-06-03T00:43:47.357Z,10.20
2018-06-03T00:46:14.831Z,8.50
2018-06-03T00:48:43.086Z,9.10
2018-06-03T00:51:10.649Z,10.57
2018-06-03T00:53:38.112Z,11.03
2018-06-03T00:56:05.583Z,8.73
2018-06-03T00:58:33.147Z,9.77
2018-06-03T01:01:00.621Z,8.67
2018-06-03T01:03:28.168Z,13.27
2018-06-03T01:05:55.639Z,14.73
2018-06-03T01:08:23.110Z,8.60
2018-06-03T01:10:50.578Z,7.90
2018-06-03T01:13:18.803Z,7.87
2018-06-03T01:15:46.293Z,9.77
2018-06-03T01:18:13.849Z,12.13
2018-06-03T01:20:41.428Z,9.10
2018-06-03T01:23:10.428Z,12.00
2018-06-03T01:25:37.986Z,11.77
2018-06-03T01:28:05.551Z,16.80
2018-06-03T01:30:33.005Z,9.97
2018-06-03T01:33:00.573Z,11.03
2018-06-03T01:35:28.051Z,10.27
2018-06-03T01:37:55.783Z,10.03
2018-06-03T01:40:23.252Z,9.20
2018-06-03T01:42:50.723Z,9.47
2018-06-03T01:45:18.189Z,10.67
2018-06-03T01:47:45.753Z,9.30
2018-06-03T01:50:13.216Z,9.97
2018-06-03T01:52:40.772Z,9.80
2018-06-03T01:55:08.258Z,9.73
2018-06-03T01:57:37.221Z,15.13
2018-06-03T02:00:04.679Z,9.83
2018-06-03T02:02:32.143Z,9.47
2018-06-03T02:04:59.641Z,10.97
2018-06-03T02:07:27.183Z,9.43
2018-06-03T02:09:55.127Z,12.23
2018-06-03T02:12:22.589Z,9.10
2018-06-03T02:14:50.087Z,9.47
2018-06-03T02:17:17.560Z,10.33
2018-06-03T02:19:45.021Z,11.67
2018-06-03T02:22:12.495Z,11.47
2018-06-03T02:24:40.042Z,8.53
2018-06-03T02:27:07.515Z,10.67
2018-06-03T02:29:34.972Z,9.67
2018-06-03T02:32:02.582Z,10.00
2018-06-03T02:34:30.049Z,9.60
2018-06-03T02:36:57.509Z,9.97
2018-06-03T02:39:25.007Z,10.23
2018-06-03T02:41:52.585Z,8.93
2018-06-03T02:44:20.043Z,9.20
2018-06-03T02:46:47.495Z,9.60
2018-06-03T02:49:14.957Z,9.93
2018-06-03T02:51:42.419Z,9.07
2018-06-03T02:54:09.985Z,10.07
2018-06-03T02:56:37.452Z,9.70
2018-06-03T02:59:04.919Z,10.30
2018-06-03T03:01:32.388Z,10.50
2018-06-03T03:03:59.896Z,10.83
2018-06-03T03:06:27.415Z,9.17
2018-06-03T03:08:54.884Z,9.87
2018-06-03T03:11:23.160Z,9.33
2018-06-03T03:13:50.720Z,10.93
2018-06-03T03:16:18.764Z,9.37
2018-06-03T03:18:46.246Z,9.53
2018-06-03T03:21:13.706Z,10.37
2018-06-03T03:23:41.271Z,10.07
2018-06-03T03:26:08.844Z,9.47
2018-06-03T03:28:36.411Z,9.40
2018-06-03T03:31:03.881Z,9.33
2018-06-03T03:33:31.348Z,9.57
2018-06-03T03:35:58.888Z,9.77
2018-06-03T03:38:26.356Z,9.27
2018-06-03T03:40:53.823Z,9.43
2018-06-03T03:43:21.286Z,8.97
2018-06-03T03:45:48.752Z,8.90
2018-06-03T03:48:16.219Z,9.63
2018-06-03T03:50:44.459Z,9.70
2018-06-03T03:53:11.934Z,10.13
2018-06-03T03:55:39.393Z,8.63
2018-06-03T03:58:06.848Z,8.20
2018-06-03T04:00:34.307Z,8.70
2018-06-03T04:03:01.790Z,9.30
2018-06-03T04:05:29.248Z,9.57
2018-06-03T04:07:56.712Z,8.73
2018-06-03T04:10:24.181Z,8.43
2018-06-03T04:12:51.651Z,8.50
2018-06-03T04:15:19.127Z,9.07
2018-06-03T04:17:47.375Z,8.97
2018-06-03T04:20:14.838Z,9.23
2018-06-03T04:22:42.308Z,8.13
2018-06-03T04:25:09.775Z,8.20
2018-06-03T04:27:37.356Z,8.73
2018-06-03T04:30:05.614Z,8.13
2018-06-03T04:32:33.100Z,9.63
2018-06-03T04:35:01.330Z,8.73
2018-06-03T04:37:28.809Z,7.50
2018-06-03T04:39:57.316Z,9.27
2018-06-03T04:42:24.779Z,8.07
2018-06-03T04:44:52.249Z,8.17
2018-06-03T04:47:20.499Z,7.75
2018-06-03T04:49:48.071Z,8.10
2018-06-03T04:52:15.643Z,7.10
2018-06-03T04:54:43.198Z,7.67
2018-06-03T04:57:10.771Z,7.07
2018-06-03T04:59:39.502Z,8.17
2018-06-03T05:02:07.728Z,7.90
2018-06-03T05:04:35.199Z,7.10
2018-06-03T05:07:04.195Z,7.10
2018-06-03T05:09:31.759Z,7.23
2018-06-03T05:11:59.324Z,7.30
2018-06-03T05:14:26.879Z,6.83
2018-06-03T05:16:54.357Z,7.13
2018-06-03T05:19:21.911Z,6.83
2018-06-03T05:21:49.472Z,6.67
2018-06-03T05:24:17.045Z,7.13
2018-06-03T05:26:44.617Z,6.50
2018-06-03T05:29:12.584Z,6.77
2018-06-03T05:31:40.050Z,6.57
2018-06-03T05:34:07.558Z,6.67
2018-06-03T05:36:35.018Z,6.60
2018-06-03T05:39:02.473Z,5.63
2018-06-03T05:41:29.989Z,6.60
2018-06-03T05:43:57.468Z,8.53
2018-06-03T05:46:25.016Z,6.57
2018-06-03T05:48:52.578Z,6.40
2018-06-03T05:51:20.035Z,6.90
2018-06-03T05:53:47.496Z,8.10
2018-06-03T05:56:14.960Z,6.67
2018-06-03T05:58:42.441Z,5.90
2018-06-03T06:01:09.902Z,6.10
2018-06-03T06:03:37.483Z,7.53
2018-06-03T06:06:04.908Z,6.13
2018-06-03T06:08:32.383Z,7.40
2018-06-03T06:10:59.844Z,6.90
2018-06-03T06:13:27.303Z,7.47
2018-06-03T06:15:54.859Z,6.87
2018-06-03T06:18:22.431Z,7.23
2018-06-03T06:20:49.999Z,6.50
2018-06-03T06:23:17.465Z,7.77
2018-06-03T06:25:45.693Z,6.20
2018-06-03T06:28:13.177Z,7.30
2018-06-03T06:30:40.631Z,6.43
2018-06-03T06:33:08.092Z,6.53
2018-06-03T06:35:36.148Z,8.80
2018-06-03T06:38:03.616Z,8.07
2018-06-03T06:40:31.078Z,6.97
2018-06-03T06:42:58.638Z,8.40
2018-06-03T06:45:26.115Z,7.27
2018-06-03T06:47:53.610Z,7.40
2018-06-03T06:50:21.164Z,6.30
2018-06-03T06:52:48.639Z,8.20
2018-06-03T06:55:16.107Z,7.73
2018-06-03T06:57:43.654Z,7.80
2018-06-03T07:00:11.241Z,7.83
2018-06-03T07:02:38.676Z,6.30
2018-06-03T07:05:06.156Z,7.67
2018-06-03T07:07:33.621Z,7.17
2018-06-03T07:10:01.072Z,6.90
2018-06-03T07:12:28.635Z,7.27
2018-06-03T07:14:56.092Z,6.53
2018-06-03T07:17:23.667Z,7.33
2018-06-03T07:19:51.136Z,7.23
2018-06-03T07:22:18.600Z,7.97
2018-06-03T07:24:46.059Z,7.17
2018-06-03T07:27:13.625Z,5.83
2018-06-03T07:29:41.068Z,6.00
2018-06-03T07:32:08.574Z,6.30
2018-06-03T07:34:36.015Z,6.03
2018-06-03T07:37:04.244Z,6.33
2018-06-03T07:39:31.700Z,6.40
2018-06-03T07:41:59.175Z,6.90
2018-06-03T07:44:26.636Z,8.07
2018-06-03T07:46:54.121Z,6.10
2018-06-03T07:49:21.608Z,8.00
2018-06-03T07:51:49.173Z,8.07
2018-06-03T07:54:16.632Z,6.90
2018-06-03T07:56:44.193Z,7.87
2018-06-03T07:59:11.754Z,7.20
2018-06-03T08:01:39.227Z,8.20
2018-06-03T08:04:06.740Z,7.33
2018-06-03T08:06:34.195Z,7.33
2018-06-03T08:09:01.659Z,6.50
2018-06-03T08:11:29.116Z,6.50
2018-06-03T08:13:56.625Z,7.00
2018-06-03T08:16:24.186Z,7.80
2018-06-03T08:18:51.753Z,6.73
2018-06-03T08:21:19.341Z,7.20
2018-06-03T08:23:47.563Z,8.07
2018-06-03T08:26:15.030Z,6.37
2018-06-03T08:28:42.493Z,8.10
2018-06-03T08:31:09.971Z,8.03
2018-06-03T08:33:37.448Z,6.80
2018-06-03T08:36:04.904Z,6.13
2018-06-03T08:38:32.463Z,5.53
2018-06-03T08:40:59.931Z,6.50
2018-06-03T08:43:27.570Z,6.27
2018-06-03T08:45:55.016Z,6.17
2018-06-03T08:48:22.497Z,6.67
2018-06-03T08:50:49.991Z,6.27
2018-06-03T08:53:17.541Z,5.40
2018-06-03T08:55:45.027Z,5.67
2018-06-03T08:58:12.573Z,5.67
2018-06-03T09:03:03.563Z,5.43
2018-06-03T09:05:31.005Z,5.07
2018-06-03T09:07:59.250Z,5.17
2018-06-03T09:10:26.708Z,5.00
2018-06-03T09:12:54.284Z,5.83
2018-06-03T09:15:21.852Z,5.03
2018-06-03T09:17:49.420Z,5.17
2018-06-03T09:20:16.974Z,5.37
2018-06-03T09:22:45.203Z,5.03
2018-06-03T09:25:12.741Z,4.47
2018-06-03T09:27:40.131Z,5.20
2018-06-03T09:30:07.598Z,4.87
2018-06-03T09:32:35.090Z,4.67
2018-06-03T09:35:02.564Z,4.83
2018-06-03T09:37:30.024Z,4.77
2018-06-03T09:39:57.488Z,4.97
2018-06-03T09:42:24.940Z,4.40
2018-06-03T09:44:52.461Z,5.00
2018-06-03T09:47:19.903Z,4.53
2018-06-03T09:49:48.127Z,4.77
2018-06-03T09:52:15.586Z,4.07
2018-06-03T09:54:43.044Z,4.03
2018-06-03T09:57:11.466Z,4.50
2018-06-03T09:59:38.915Z,3.90
2018-06-03T10:02:06.486Z,3.87
2018-06-03T10:04:33.941Z,4.03
2018-06-03T10:07:01.407Z,4.30
2018-06-03T10:09:28.960Z,3.90
2018-06-03T10:11:56.532Z,4.20
2018-06-03T10:14:24.000Z,3.97
2018-06-03T10:16:51.464Z,4.30
2018-06-03T10:19:19.028Z,4.77
2018-06-03T10:21:46.507Z,3.57
2018-06-03T10:24:14.772Z,4.27
2018-06-03T10:26:42.239Z,4.10
2018-06-03T10:29:09.693Z,4.27
2018-06-03T10:31:37.157Z,5.03
2018-06-03T10:34:05.421Z,4.20
2018-06-03T10:36:32.976Z,4.63
2018-06-03T10:39:00.440Z,3.77
2018-06-03T10:41:27.899Z,3.80
2018-06-03T10:43:55.371Z,3.53
2018-06-03T10:46:22.834Z,4.30
2018-06-03T10:48:50.297Z,4.20
2018-06-03T10:51:19.057Z,4.20
2018-06-03T10:53:46.517Z,4.20
2018-06-03T10:56:13.977Z,3.60
2018-06-03T10:58:41.440Z,4.10
2018-06-03T11:01:08.887Z,3.83
2018-06-03T11:03:36.347Z,3.90
2018-06-03T11:06:04.585Z,3.53
2018-06-03T11:08:32.056Z,4.00
2018-06-03T11:10:59.509Z,3.90
2018-06-03T11:13:27.076Z,3.73
2018-06-03T11:15:54.635Z,3.40
2018-06-03T11:18:22.196Z,3.57
2018-06-03T11:20:49.682Z,3.60
2018-06-03T11:23:17.241Z,3.30
2018-06-03T11:25:44.704Z,2.77
2018-06-03T11:28:12.175Z,3.00
2018-06-03T11:30:40.403Z,3.40
2018-06-03T11:33:07.851Z,3.50
2018-06-03T11:35:35.328Z,3.47
2018-06-03T11:38:02.789Z,3.20
2018-06-03T11:40:30.277Z,4.00
2018-06-03T11:42:57.742Z,3.60
2018-06-03T11:45:25.199Z,3.40
2018-06-03T11:47:52.767Z,3.47
2018-06-03T11:50:20.238Z,3.87
2018-06-03T11:52:47.702Z,3.07
2018-06-03T11:55:15.164Z,3.30
2018-06-03T11:57:46.587Z,3.23
2018-06-03T12:00:14.047Z,3.03
2018-06-03T12:02:41.549Z,3.40
2018-06-03T12:05:09.007Z,3.20
2018-06-03T12:07:36.569Z,3.10
2018-06-03T12:10:04.027Z,2.53
2018-06-03T12:12:31.585Z,2.80
2018-06-03T12:14:59.149Z,2.73
2018-06-03T12:17:26.721Z,3.07
2018-06-03T12:19:54.177Z,3.10
2018-06-03T12:22:21.728Z,3.17
2018-06-03T12:24:49.260Z,2.83
2018-06-03T12:27:16.702Z,2.90
2018-06-03T12:29:44.939Z,3.10
2018-06-03T12:32:12.395Z,3.10
2018-06-03T12:34:39.864Z,3.27
2018-06-03T12:37:07.316Z,3.63
2018-06-03T12:39:34.916Z,2.93
2018-06-03T12:42:03.152Z,2.80
2018-06-03T12:44:30.643Z,3.00
2018-06-03T12:46:58.089Z,2.80
2018-06-03T12:49:25.559Z,2.70
2018-06-03T12:51:53.031Z,3.03
2018-06-03T12:54:22.021Z,3.80
2018-06-03T12:56:49.484Z,3.10
2018-06-03T12:59:16.944Z,3.33
2018-06-03T13:01:44.420Z,3.20
2018-06-03T13:04:12.445Z,2.57
2018-06-03T13:06:39.899Z,2.50
2018-06-03T13:09:07.414Z,2.80
2018-06-03T13:11:34.897Z,2.77
2018-06-03T13:14:03.157Z,2.67
2018-06-03T13:16:30.619Z,3.30
2018-06-03T13:18:58.096Z,3.03
2018-06-03T13:21:25.553Z,3.40
2018-06-03T13:23:53.113Z,2.70
2018-06-03T13:26:20.703Z,2.60
2018-06-03T13:28:48.924Z,3.40
2018-06-03T13:31:16.388Z,2.60
2018-06-03T13:33:43.865Z,2.83
2018-06-03T13:36:11.432Z,3.10
2018-06-03T13:38:38.895Z,3.27
2018-06-03T13:41:06.360Z,2.87
2018-06-03T13:43:33.833Z,3.93
2018-06-03T13:46:01.295Z,3.30
2018-06-03T13:48:28.748Z,3.43
2018-06-03T13:50:56.308Z,3.27
2018-06-03T13:53:23.881Z,2.60
2018-06-03T13:55:51.341Z,3.23
2018-06-03T13:58:18.801Z,3.10
2018-06-03T14:00:46.364Z,3.00
2018-06-03T14:03:13.833Z,2.67
2018-06-03T14:05:41.298Z,2.90
2018-06-03T14:08:08.769Z,2.70
2018-06-03T14:10:38.205Z,2.80
2018-06-03T14:13:05.722Z,3.00
2018-06-03T14:15:33.198Z,2.60
2018-06-03T14:18:02.163Z,3.03
2018-06-03T14:20:29.646Z,2.90
2018-06-03T14:22:57.128Z,3.20
2018-06-03T14:25:25.402Z,2.90
2018-06-03T14:27:52.835Z,2.90
2018-06-03T14:30:20.422Z,2.50
2018-06-03T14:32:48.693Z,2.50
2018-06-03T14:35:16.160Z,2.53
2018-06-03T14:37:43.625Z,2.87
2018-06-03T14:40:11.180Z,2.77
2018-06-03T14:42:38.752Z,2.50
2018-06-03T14:45:06.220Z,2.60
2018-06-03T14:47:34.452Z,2.90
2018-06-03T14:50:01.928Z,2.50
2018-06-03T14:52:29.415Z,2.17
2018-06-03T14:54:58.107Z,2.53
2018-06-03T14:57:25.574Z,2.17
2018-06-03T14:59:54.488Z,2.10
2018-06-03T15:02:21.956Z,2.07
2018-06-03T15:04:49.443Z,1.90
2018-06-03T15:07:17.673Z,2.00
2018-06-03T15:09:45.176Z,2.00
2018-06-03T15:12:12.647Z,2.80
2018-06-03T15:14:40.877Z,2.30
2018-06-03T15:17:08.443Z,2.00
2018-06-03T15:19:36.013Z,2.37
2018-06-03T15:22:03.543Z,2.70
2018-06-03T15:24:31.000Z,2.00
2018-06-03T15:26:58.492Z,2.47
2018-06-03T15:29:25.971Z,2.30
2018-06-03T15:31:54.203Z,2.43
2018-06-03T15:34:21.688Z,2.03
2018-06-03T15:36:49.169Z,2.73
2018-06-03T15:39:17.411Z,2.50
2018-06-03T15:41:44.901Z,2.30
2018-06-03T15:44:12.370Z,2.40
2018-06-03T15:46:40.608Z,3.90
2018-06-03T15:49:08.141Z,3.20
2018-06-03T15:51:35.613Z,2.20
2018-06-03T15:54:03.048Z,2.37
2018-06-03T15:56:31.349Z,3.30
2018-06-03T15:58:59.953Z,2.53
2018-06-03T16:01:28.206Z,3.50
2018-06-03T16:03:55.662Z,2.80
2018-06-03T16:06:23.130Z,3.93
2018-06-03T16:08:51.367Z,3.13
2018-06-03T16:11:18.871Z,2.27
2018-06-03T16:13:46.334Z,3.53
2018-06-03T16:16:13.831Z,2.90
2018-06-03T16:18:41.377Z,3.30
2018-06-03T16:21:08.831Z,2.70
2018-06-03T16:23:37.514Z,2.37
2018-06-03T16:26:05.038Z,2.60
2018-06-03T16:28:33.617Z,2.90
2018-06-03T16:31:01.108Z,3.23
2018-06-03T16:33:29.359Z,3.33
2018-06-03T16:35:56.820Z,2.63
2018-06-03T16:38:24.293Z,2.77
2018-06-03T16:40:51.781Z,4.07
2018-06-03T16:43:20.063Z,3.00
2018-06-03T16:45:47.505Z,2.90
2018-06-03T16:48:16.116Z,2.80
2018-06-03T16:50:43.595Z,3.03
2018-06-03T16:53:11.849Z,3.10
2018-06-03T16:55:39.306Z,3.00
2018-06-03T16:58:06.783Z,3.20
2018-06-03T17:00:34.237Z,3.70
2018-06-03T17:03:02.562Z,3.20
2018-06-03T17:05:30.073Z,4.20
2018-06-03T17:07:57.522Z,4.93
2018-06-03T17:10:25.097Z,3.20
2018-06-03T17:12:54.117Z,3.83
2018-06-03T17:15:21.660Z,3.47
2018-06-03T17:17:49.895Z,3.43
2018-06-03T17:20:17.440Z,3.43
2018-06-03T17:22:44.894Z,3.57
2018-06-03T17:25:13.113Z,4.47
2018-06-03T17:27:40.667Z,3.70
2018-06-03T17:30:08.144Z,3.93
2018-06-03T17:32:35.604Z,3.57
2018-06-03T17:35:03.766Z,3.83
2018-06-03T17:37:31.204Z,3.93
2018-06-03T17:39:59.437Z,4.40
2018-06-03T17:42:26.909Z,3.70
2018-06-03T17:44:54.380Z,3.43
2018-06-03T17:47:22.608Z,4.33
2018-06-03T17:49:50.081Z,4.10
2018-06-03T17:52:17.578Z,4.10
2018-06-03T17:54:45.029Z,3.73
2018-06-03T17:57:12.494Z,3.70
2018-06-03T17:59:39.960Z,3.80
2018-06-03T18:02:07.430Z,4.03
2018-06-03T18:04:34.893Z,3.50
2018-06-03T18:07:03.133Z,4.80
2018-06-03T18:09:30.634Z,3.53
2018-06-03T18:11:58.091Z,4.10
2018-06-03T18:14:25.555Z,3.30
2018-06-03T18:16:53.139Z,3.90
2018-06-03T18:19:20.584Z,3.30
2018-06-03T18:21:49.557Z,3.50
2018-06-03T18:24:17.036Z,3.93
2018-06-03T18:26:44.608Z,4.83
2018-06-03T18:29:12.857Z,4.10
2018-06-03T18:31:40.406Z,4.20
2018-06-03T18:34:09.009Z,5.07
2018-06-03T18:36:36.481Z,4.20
2018-06-03T18:39:03.965Z,4.47
2018-06-03T18:41:32.507Z,4.97
2018-06-03T18:43:59.950Z,4.57
2018-06-03T18:46:27.538Z,3.63
2018-06-03T18:48:54.952Z,4.30
2018-06-03T18:51:22.475Z,4.93
2018-06-03T18:53:51.052Z,4.97
2018-06-03T18:56:18.572Z,4.10
2018-06-03T18:58:46.846Z,4.70
2018-06-03T19:01:15.809Z,4.97
2018-06-03T19:03:43.298Z,4.87
2018-06-03T19:06:11.517Z,5.10
2018-06-03T19:08:38.992Z,5.07
2018-06-03T19:11:06.452Z,4.63
2018-06-03T19:13:33.983Z,5.60
2018-06-03T19:16:01.508Z,6.40
2018-06-03T19:18:29.025Z,5.43
2018-06-03T19:20:57.257Z,5.63
2018-06-03T19:23:24.728Z,5.87
2018-06-03T19:25:52.193Z,5.57
2018-06-03T19:28:19.742Z,6.37
2018-06-03T19:30:48.008Z,5.57
2018-06-03T19:33:15.456Z,5.70
2018-06-03T19:35:42.912Z,5.57
2018-06-03T19:38:10.384Z,6.47
2018-06-03T19:40:37.868Z,5.60
2018-06-03T19:43:05.373Z,6.63
2018-06-03T19:45:33.584Z,5.33
2018-06-03T19:48:01.314Z,5.77
2018-06-03T19:50:29.541Z,6.67
2018-06-03T19:52:57.004Z,6.20
2018-06-03T19:55:24.457Z,5.37
2018-06-03T19:57:51.948Z,6.30
2018-06-03T20:00:19.512Z,6.07
2018-06-03T20:02:47.074Z,5.90
2018-06-03T20:05:14.550Z,5.30
2018-06-03T20:07:42.763Z,5.53
2018-06-03T20:10:10.238Z,5.27
2018-06-03T20:12:37.688Z,5.73
2018-06-03T20:15:05.217Z,5.43
2018-06-03T20:17:34.188Z,5.27
2018-06-03T20:20:01.675Z,5.03
2018-06-03T20:22:29.128Z,5.50
2018-06-03T20:24:56.606Z,5.13
2018-06-03T20:27:25.585Z,5.70
2018-06-03T20:29:53.144Z,5.13
2018-06-03T20:32:20.624Z,5.27
2018-06-03T20:34:48.882Z,5.63
2018-06-03T20:37:16.336Z,5.17
2018-06-03T20:39:43.877Z,5.23
2018-06-03T20:42:11.376Z,6.10
2018-06-03T20:44:38.859Z,6.23
2018-06-03T20:47:06.312Z,5.73
2018-06-03T20:49:35.294Z,5.80
2018-06-03T20:52:02.759Z,6.30
2018-06-03T20:54:30.797Z,5.77
2018-06-03T20:56:58.262Z,6.07
2018-06-03T20:59:25.759Z,5.47
2018-06-03T21:01:53.329Z,6.20
2018-06-03T21:04:20.789Z,6.50
2018-06-03T21:06:48.259Z,7.20
2018-06-03T21:09:17.242Z,5.70
2018-06-03T21:11:44.704Z,5.83
2018-06-03T21:14:12.171Z,6.80
2018-06-03T21:16:39.741Z,5.63
2018-06-03T21:19:07.297Z,6.63
2018-06-03T21:21:34.855Z,6.37
2018-06-03T21:24:02.326Z,6.57
2018-06-03T21:26:29.893Z,7.00
2018-06-03T21:28:57.463Z,6.57
2018-06-03T21:31:24.974Z,6.53
2018-06-03T21:33:52.436Z,6.60
2018-06-03T21:36:19.893Z,6.87
2018-06-03T21:38:47.397Z,7.17
2018-06-03T21:41:14.871Z,6.77
2018-06-03T21:43:42.425Z,6.50
2018-06-03T21:46:09.991Z,6.67
2018-06-03T21:48:37.465Z,6.63
2018-06-03T21:51:05.021Z,7.90
2018-06-03T21:53:32.483Z,8.47
2018-06-03T21:56:00.045Z,8.20
2018-06-03T21:58:27.562Z,7.17
2018-06-03T22:00:55.644Z,7.47
2018-06-03T22:03:23.107Z,7.97
2018-06-03T22:05:50.567Z,8.27
2018-06-03T22:08:18.073Z,8.67
2018-06-03T22:10:45.536Z,8.30
2018-06-03T22:13:13.104Z,9.53
2018-06-03T22:15:40.569Z,8.50
2018-06-03T22:18:08.073Z,8.63
2018-06-03T22:20:36.271Z,9.30
2018-06-03T22:23:03.760Z,8.73
2018-06-03T22:25:31.235Z,9.07
2018-06-03T22:27:58.804Z,8.50
2018-06-03T22:30:26.262Z,8.50
2018-06-03T22:32:55.239Z,9.40
2018-06-03T22:35:22.823Z,8.57
2018-06-03T22:37:50.375Z,9.00
2018-06-03T22:40:17.939Z,9.03
2018-06-03T22:42:45.408Z,8.73
2018-06-03T22:45:12.902Z,8.07
2018-06-03T22:47:41.165Z,8.43
2018-06-03T22:50:09.445Z,7.87
2018-06-03T22:52:36.852Z,7.70
2018-06-03T22:55:04.312Z,7.73
2018-06-03T22:57:46.753Z,7.33
2018-06-03T23:00:14.212Z,6.63
2018-06-03T23:02:41.664Z,7.90
2018-06-03T23:05:09.124Z,7.40
2018-06-03T23:07:36.592Z,7.17
2018-06-03T23:10:04.070Z,6.87
2018-06-03T23:12:31.799Z,6.53
2018-06-03T23:14:59.275Z,6.47
2018-06-03T23:17:26.729Z,5.80
2018-06-03T23:19:54.201Z,5.90
2018-06-03T23:22:21.670Z,5.77
2018-06-03T23:24:49.124Z,5.70
2018-06-03T23:27:16.580Z,5.80
2018-06-03T23:29:44.060Z,4.93
2018-06-03T23:32:11.509Z,5.17
2018-06-03T23:34:38.972Z,4.90
2018-06-03T23:37:06.438Z,4.83
2018-06-03T23:39:33.895Z,5.37
2018-06-03T23:42:01.361Z,5.03
2018-06-03T23:44:28.942Z,4.90
2018-06-03T23:46:56.507Z,5.23
2018-06-03T23:49:23.965Z,4.73
2018-06-03T23:51:51.535Z,4.67
2018-06-03T23:54:19.007Z,4.63
2018-06-03T23:56:46.561Z,4.60
2018-06-03T23:59:15.525Z,4.50
